Lake Ozette, Washington
Current Conditions -  °F | °C
As of 1:22 PM on Saturday 22 Nov 2014 (Local Time) from KUIL Reporting Station
Broken Clouds Broken Clouds  
Wind Chill: 52°   Ceiling: 3900
Heat Index: 52°   Visibility: 7mi
Dew Point: 43°   Wind: 13mph
Humidity: 71%   Direction: 290°WNW
Pressure: 29.89"   Gusts: 20mph
Location:  48.1788°N, 124.127°W
Report Text: KUIL 222122Z AUTO 29011G17KT 7SM SCT027 BKN039 BKN046 11/06 A2989 RMK AO2 T01110061
Loading
Personal Weather Stations






























Interactive Weather Map New forecast layout! Learn more

10-Day Weather Forecast

Advertisements
Track Severe Weather on mobile